createdAt,value
2023-03-28T00:01:32.124Z,1.05
2023-03-28T00:03:58.676Z,0.20
2023-03-28T00:06:26.497Z,0.23
2023-03-28T00:08:53.917Z,0.40
2023-03-28T00:11:24.577Z,0.40
2023-03-28T00:14:03.659Z,0.32
2023-03-28T00:16:33.095Z,0.60
2023-03-28T00:19:07.920Z,0.30
2023-03-28T00:21:36.952Z,0.40
2023-03-28T00:24:06.164Z,0.30
2023-03-28T00:26:35.851Z,0.40
2023-03-28T00:29:05.309Z,0.28
2023-03-28T00:31:35.159Z,0.30
2023-03-28T00:34:02.092Z,0.45
2023-03-28T00:36:29.990Z,0.55
2023-03-28T00:38:57.924Z,0.20
2023-03-28T00:41:26.804Z,0.30
2023-03-28T00:43:54.839Z,0.47
2023-03-28T00:46:42.288Z,0.53
2023-03-28T00:49:13.923Z,0.20
2023-03-28T00:51:47.727Z,0.45
2023-03-28T00:54:18.802Z,0.20
2023-03-28T00:56:48.980Z,0.10
2023-03-28T00:59:20.178Z,0.22
2023-03-28T01:01:47.470Z,0.28
2023-03-28T01:04:20.395Z,0.40
2023-03-28T01:06:51.882Z,0.30
2023-03-28T01:09:19.932Z,0.47
2023-03-28T01:11:47.661Z,0.35
2023-03-28T01:14:17.836Z,0.30
2023-03-28T01:16:47.782Z,0.40
2023-03-28T01:19:43.055Z,0.20
2023-03-28T01:22:43.540Z,0.50
2023-03-28T01:25:50.024Z,0.43
2023-03-28T01:28:35.203Z,0.50
2023-03-28T01:31:37.933Z,0.40
2023-03-28T01:34:13.588Z,0.10
2023-03-28T01:36:52.189Z,0.20
2023-03-28T01:39:28.095Z,0.28
2023-03-28T01:42:05.422Z,0.20
2023-03-28T01:45:06.286Z,0.20
2023-03-28T01:47:50.053Z,0.10
2023-03-28T01:50:25.445Z,0.60
2023-03-28T01:53:17.140Z,0.40
2023-03-28T01:55:54.093Z,0.28
2023-03-28T01:58:46.548Z,0.45
2023-03-28T02:01:23.085Z,0.30
2023-03-28T02:03:54.463Z,0.23
2023-03-28T02:06:23.069Z,0.30
2023-03-28T02:08:52.665Z,0.30
2023-03-28T02:11:21.875Z,0.30
2023-03-28T02:13:56.289Z,0.60
2023-03-28T02:16:25.609Z,0.20
2023-03-28T02:18:57.398Z,0.10
2023-03-28T02:21:30.118Z,0.22
2023-03-28T02:23:56.855Z,0.30
2023-03-28T02:26:25.828Z,0.65
2023-03-28T02:28:56.985Z,0.37
2023-03-28T02:31:24.584Z,0.43
2023-03-28T02:33:52.694Z,0.43
2023-03-28T02:36:31.652Z,0.40
2023-03-28T02:39:41.241Z,0.35
2023-03-28T02:42:38.559Z,0.37
2023-03-28T02:45:23.663Z,0.55
2023-03-28T02:48:02.736Z,0.57
2023-03-28T02:51:04.374Z,0.38
2023-03-28T02:53:39.746Z,0.50
2023-03-28T02:56:52.989Z,0.40
2023-03-28T02:59:30.625Z,0.50
2023-03-28T03:01:57.318Z,0.30
2023-03-28T03:04:25.404Z,0.30
2023-03-28T03:06:52.323Z,0.32
2023-03-28T03:09:18.835Z,0.47
2023-03-28T03:11:45.290Z,0.30
2023-03-28T03:14:21.062Z,0.30
2023-03-28T03:16:48.997Z,0.47
2023-03-28T03:19:15.583Z,0.50
2023-03-28T03:21:42.198Z,0.40
2023-03-28T03:24:10.013Z,0.30
2023-03-28T03:26:42.862Z,0.90
2023-03-28T03:29:09.674Z,0.50
2023-03-28T03:31:37.007Z,0.40
2023-03-28T03:34:03.662Z,0.40
2023-03-28T03:36:31.698Z,0.55
2023-03-28T03:38:58.189Z,0.68
2023-03-28T03:41:24.929Z,0.40
2023-03-28T03:43:51.708Z,0.70
2023-03-28T03:46:18.624Z,0.47
2023-03-28T03:48:49.309Z,0.50
2023-03-28T03:51:16.817Z,0.25
2023-03-28T03:53:43.321Z,0.30
2023-03-28T03:56:10.581Z,0.90
2023-03-28T03:58:37.426Z,0.67
2023-03-28T04:01:04.158Z,1.08
2023-03-28T04:03:30.878Z,0.60
2023-03-28T04:05:58.450Z,0.50
2023-03-28T04:08:25.351Z,0.30
2023-03-28T04:10:52.257Z,0.30
2023-03-28T04:15:59.482Z,0.82
2023-03-28T04:18:26.293Z,0.45
2023-03-28T04:20:55.596Z,0.47
2023-03-28T04:23:25.798Z,0.43
2023-03-28T04:25:59.326Z,0.60
2023-03-28T04:28:27.807Z,0.30
2023-03-28T04:30:58.366Z,0.57
2023-03-28T04:33:26.310Z,0.63
2023-03-28T04:36:00.578Z,0.70
2023-03-28T04:38:32.344Z,0.70
2023-03-28T04:40:59.628Z,0.28
2023-03-28T04:43:29.840Z,0.60
2023-03-28T04:45:57.129Z,0.60
2023-03-28T04:48:25.355Z,0.40
2023-03-28T04:50:52.351Z,0.43
2023-03-28T04:53:19.594Z,0.52
2023-03-28T04:55:50.323Z,0.52
2023-03-28T04:58:18.807Z,0.68
2023-03-28T05:00:46.130Z,0.63
2023-03-28T05:03:24.759Z,0.82
2023-03-28T05:05:52.861Z,0.50
2023-03-28T05:08:23.053Z,0.80
2023-03-28T05:10:51.215Z,0.47
2023-03-28T05:13:18.316Z,0.40
2023-03-28T05:15:46.726Z,0.50
2023-03-28T05:18:13.363Z,0.60
2023-03-28T05:20:39.905Z,0.63
2023-03-28T05:23:06.578Z,0.93
2023-03-28T05:25:33.611Z,0.77
2023-03-28T05:28:00.742Z,0.98
2023-03-28T05:30:27.773Z,0.60
2023-03-28T05:32:57.581Z,0.80
2023-03-28T05:35:24.075Z,0.70
2023-03-28T05:37:51.526Z,0.83
2023-03-28T05:40:18.224Z,0.68
2023-03-28T05:42:44.925Z,1.00
2023-03-28T05:45:14.484Z,1.17
2023-03-28T05:47:41.237Z,0.90
2023-03-28T05:50:08.643Z,1.10
2023-03-28T05:52:35.246Z,1.23
2023-03-28T05:55:01.682Z,1.00
2023-03-28T05:57:28.312Z,0.85
2023-03-28T06:00:01.663Z,0.85
2023-03-28T06:02:29.539Z,1.30
2023-03-28T06:04:56.572Z,1.42
2023-03-28T06:07:35.123Z,1.55
2023-03-28T06:10:07.275Z,1.20
2023-03-28T06:12:33.897Z,1.08
2023-03-28T06:15:00.324Z,1.20
2023-03-28T06:17:26.919Z,1.30
2023-03-28T06:19:53.637Z,1.25
2023-03-28T06:22:20.258Z,0.95
2023-03-28T06:24:46.623Z,1.23
2023-03-28T06:27:13.268Z,1.10
2023-03-28T06:29:39.730Z,2.10
2023-03-28T06:32:06.709Z,1.77
2023-03-28T06:34:33.308Z,1.50
2023-03-28T06:37:01.229Z,1.60
2023-03-28T06:39:28.065Z,1.33
2023-03-28T06:41:54.556Z,1.40
2023-03-28T06:44:21.262Z,1.95
2023-03-28T06:46:47.891Z,1.65
2023-03-28T06:49:14.547Z,1.80
2023-03-28T06:51:41.290Z,1.73
2023-03-28T06:54:09.200Z,1.77
2023-03-28T06:56:36.099Z,1.65
2023-03-28T06:59:02.597Z,1.80
2023-03-28T07:01:29.209Z,1.30
2023-03-28T07:03:59.368Z,1.50
2023-03-28T07:06:27.687Z,1.73
2023-03-28T07:08:56.202Z,1.55
2023-03-28T07:11:22.891Z,1.90
2023-03-28T07:13:49.560Z,1.50
2023-03-28T07:16:16.913Z,1.40
2023-03-28T07:18:44.691Z,1.60
2023-03-28T07:21:16.894Z,2.15
2023-03-28T07:23:44.904Z,1.40
2023-03-28T07:26:12.781Z,1.58
2023-03-28T07:28:39.492Z,1.60
2023-03-28T07:31:06.309Z,1.50
2023-03-28T07:33:37.297Z,2.33
2023-03-28T07:36:13.553Z,1.45
2023-03-28T07:38:41.196Z,1.77
2023-03-28T07:41:08.183Z,1.53
2023-03-28T07:43:35.526Z,1.77
2023-03-28T07:46:08.280Z,1.83
2023-03-28T07:48:36.509Z,1.77
2023-03-28T07:51:06.529Z,1.67
2023-03-28T07:53:34.025Z,1.57
2023-03-28T07:56:00.704Z,1.40
2023-03-28T07:58:27.258Z,1.35
2023-03-28T08:00:54.105Z,1.40
2023-03-28T08:03:23.023Z,1.48
2023-03-28T08:05:52.060Z,1.77
2023-03-28T08:08:20.259Z,1.10
2023-03-28T08:10:51.700Z,1.30
2023-03-28T08:16:01.396Z,1.00
2023-03-28T08:18:31.047Z,0.83
2023-03-28T08:21:01.831Z,1.17
2023-03-28T08:23:29.082Z,1.20
2023-03-28T08:26:12.875Z,1.40
2023-03-28T08:28:39.690Z,0.93
2023-03-28T08:31:15.266Z,0.87
2023-03-28T08:33:51.518Z,1.20
2023-03-28T08:36:18.833Z,1.52
2023-03-28T08:38:46.880Z,1.15
2023-03-28T08:41:50.294Z,1.20
2023-03-28T08:44:48.404Z,1.73
2023-03-28T08:47:31.949Z,0.80
2023-03-28T08:50:07.270Z,1.33
2023-03-28T08:52:34.336Z,1.52
2023-03-28T08:55:07.122Z,1.20
2023-03-28T08:57:36.274Z,1.47
2023-03-28T09:00:24.076Z,1.30
2023-03-28T09:02:52.045Z,1.35
2023-03-28T09:05:33.023Z,0.93
2023-03-28T09:08:09.102Z,1.45
2023-03-28T09:10:42.414Z,1.30
2023-03-28T09:13:52.018Z,0.82
2023-03-28T09:16:46.988Z,1.00
2023-03-28T09:19:47.318Z,0.93
2023-03-28T09:22:42.632Z,1.20
2023-03-28T09:25:36.402Z,1.33
2023-03-28T09:28:38.393Z,1.25
2023-03-28T09:31:09.620Z,1.30
2023-03-28T09:33:40.852Z,1.08
2023-03-28T09:36:45.418Z,0.60
2023-03-28T09:39:32.905Z,1.33
2023-03-28T09:42:20.495Z,1.00
2023-03-28T09:45:04.580Z,0.98
2023-03-28T09:47:32.970Z,0.85
2023-03-28T09:50:11.951Z,1.02
2023-03-28T09:52:40.278Z,1.03
2023-03-28T09:55:16.541Z,1.10
2023-03-28T09:58:02.888Z,1.35
2023-03-28T10:00:33.851Z,1.35
2023-03-28T10:03:00.815Z,1.10
2023-03-28T10:05:45.144Z,1.20
2023-03-28T10:08:34.933Z,0.60
2023-03-28T10:11:14.986Z,1.00
2023-03-28T10:13:49.945Z,0.70
2023-03-28T10:16:29.690Z,1.23
2023-03-28T10:18:57.868Z,1.10
2023-03-28T10:21:26.549Z,1.33
2023-03-28T10:24:08.186Z,1.52
2023-03-28T10:26:34.915Z,1.20
2023-03-28T10:29:05.524Z,1.10
2023-03-28T10:31:33.090Z,1.43
2023-03-28T10:34:02.870Z,0.85
2023-03-28T10:36:37.617Z,0.88
2023-03-28T10:39:23.024Z,0.40
2023-03-28T10:41:59.206Z,0.60
2023-03-28T10:44:29.402Z,0.60
2023-03-28T10:47:00.817Z,1.00
2023-03-28T10:49:30.960Z,0.60
2023-03-28T10:51:57.718Z,0.40
2023-03-28T10:55:25.161Z,0.32
2023-03-28T10:58:14.644Z,0.33
2023-03-28T11:01:00.987Z,0.25
2023-03-28T11:03:37.584Z,0.50
2023-03-28T11:06:19.482Z,0.40
2023-03-28T11:09:23.506Z,0.52
2023-03-28T11:12:23.061Z,0.40
2023-03-28T11:14:54.595Z,0.47
2023-03-28T11:18:16.573Z,0.30
2023-03-28T11:21:17.046Z,0.32
2023-03-28T11:23:46.201Z,0.50
2023-03-28T11:26:17.267Z,0.67
2023-03-28T11:29:12.690Z,0.68
2023-03-28T11:31:54.180Z,0.30
2023-03-28T11:34:30.121Z,0.52
2023-03-28T11:37:08.277Z,0.77
2023-03-28T11:39:48.434Z,1.13
2023-03-28T11:42:22.573Z,0.63
2023-03-28T11:45:01.800Z,0.65
2023-03-28T11:47:41.500Z,0.85
2023-03-28T11:50:15.013Z,0.95
2023-03-28T11:52:52.047Z,0.87
2023-03-28T11:55:36.752Z,1.00
2023-03-28T11:58:16.578Z,1.08
2023-03-28T12:00:50.315Z,0.98
2023-03-28T12:03:25.698Z,1.15
2023-03-28T12:06:08.400Z,1.70
2023-03-28T12:08:45.550Z,1.00
2023-03-28T12:11:19.153Z,0.95
2023-03-28T12:14:08.702Z,0.98
2023-03-28T12:16:43.864Z,0.63
2023-03-28T12:19:13.971Z,0.80
2023-03-28T12:21:44.963Z,0.60
2023-03-28T12:24:25.406Z,0.85
2023-03-28T12:27:00.991Z,0.50
2023-03-28T12:29:40.829Z,0.80
2023-03-28T12:32:25.025Z,0.43
2023-03-28T12:35:05.245Z,0.63
2023-03-28T12:37:48.354Z,0.40
2023-03-28T12:40:30.425Z,0.80
2023-03-28T12:42:58.336Z,0.60
2023-03-28T12:45:31.374Z,0.53
2023-03-28T12:48:07.994Z,0.47
2023-03-28T12:50:50.792Z,0.47
2023-03-28T12:53:18.220Z,0.77
2023-03-28T12:55:48.190Z,0.68
2023-03-28T12:58:36.452Z,0.83
2023-03-28T13:01:09.182Z,0.68
2023-03-28T13:04:13.336Z,0.70
2023-03-28T13:07:03.314Z,0.60
2023-03-28T13:09:49.941Z,0.70
2023-03-28T13:12:38.569Z,0.97
2023-03-28T13:15:14.092Z,1.20
2023-03-28T13:17:48.514Z,0.70
2023-03-28T13:20:15.066Z,0.80
2023-03-28T13:22:58.570Z,1.10
2023-03-28T13:25:28.736Z,0.73
2023-03-28T13:28:13.297Z,1.13
2023-03-28T13:30:46.514Z,0.88
2023-03-28T13:33:40.440Z,1.00
2023-03-28T13:36:08.190Z,0.98
2023-03-28T13:39:00.374Z,0.70
2023-03-28T13:41:35.875Z,0.85
2023-03-28T13:44:07.048Z,1.13
2023-03-28T13:46:41.389Z,0.70
2023-03-28T13:49:11.255Z,1.00
2023-03-28T13:51:47.876Z,1.30
2023-03-28T13:54:24.099Z,0.98
2023-03-28T13:56:53.167Z,1.63
2023-03-28T13:59:25.713Z,1.25
2023-03-28T14:02:00.748Z,0.93
2023-03-28T14:04:32.344Z,1.23
2023-03-28T14:06:59.035Z,0.95
2023-03-28T14:09:28.602Z,1.45
2023-03-28T14:12:06.323Z,1.00
2023-03-28T14:14:37.872Z,0.93
2023-03-28T14:17:08.255Z,1.20
2023-03-28T14:19:53.140Z,1.20
2023-03-28T14:22:21.480Z,0.80
2023-03-28T14:24:51.680Z,0.75
2023-03-28T14:27:39.885Z,1.10
2023-03-28T14:30:29.442Z,1.20
2023-03-28T14:33:14.361Z,0.88
2023-03-28T14:35:47.859Z,0.60
2023-03-28T14:38:26.980Z,1.17
2023-03-28T14:40:54.958Z,1.17
2023-03-28T14:43:31.201Z,1.03
2023-03-28T14:46:03.059Z,1.00
2023-03-28T14:48:30.133Z,0.88
2023-03-28T14:50:59.058Z,1.05
2023-03-28T14:53:28.373Z,1.23
2023-03-28T14:56:02.265Z,1.27
2023-03-28T14:58:30.949Z,1.58
2023-03-28T15:01:00.782Z,1.10
2023-03-28T15:03:39.039Z,0.88
2023-03-28T15:06:08.426Z,1.35
2023-03-28T15:08:38.893Z,1.67
2023-03-28T15:11:11.064Z,1.17
2023-03-28T15:13:44.022Z,1.00
2023-03-28T15:16:18.559Z,1.10
2023-03-28T15:18:50.729Z,0.80
2023-03-28T15:21:17.249Z,1.10
2023-03-28T15:23:56.205Z,0.90
2023-03-28T15:26:28.071Z,0.70
2023-03-28T15:28:56.580Z,1.10
2023-03-28T15:31:27.564Z,1.40
2023-03-28T15:33:54.608Z,0.77
2023-03-28T15:36:30.033Z,1.30
2023-03-28T15:39:01.780Z,1.13
2023-03-28T15:41:45.271Z,1.10
2023-03-28T15:44:34.994Z,1.00
2023-03-28T15:47:04.971Z,1.07
2023-03-28T15:49:36.808Z,1.38
2023-03-28T15:52:09.466Z,0.77
2023-03-28T15:54:45.867Z,1.50
2023-03-28T15:57:14.531Z,1.10
2023-03-28T15:59:51.298Z,1.37
2023-03-28T16:02:23.815Z,1.10
2023-03-28T16:05:15.127Z,0.90
2023-03-28T16:07:45.892Z,0.77
2023-03-28T16:10:15.098Z,0.90
2023-03-28T16:12:51.425Z,1.00
2023-03-28T16:15:19.033Z,0.70
2023-03-28T16:17:47.422Z,0.80
2023-03-28T16:20:22.151Z,0.63
2023-03-28T16:22:50.376Z,2.97
2023-03-28T16:25:17.331Z,0.73
2023-03-28T16:27:44.118Z,1.33
2023-03-28T16:30:25.684Z,0.70
2023-03-28T16:32:52.215Z,0.77
2023-03-28T16:35:18.884Z,0.80
2023-03-28T16:37:45.428Z,1.10
2023-03-28T16:40:12.343Z,1.27
2023-03-28T16:42:39.315Z,0.88
2023-03-28T16:45:06.522Z,1.40
2023-03-28T16:47:32.937Z,1.08
2023-03-28T16:49:59.615Z,1.07
2023-03-28T16:52:27.889Z,1.05
2023-03-28T16:55:01.632Z,1.48
2023-03-28T16:57:31.293Z,1.48
2023-03-28T17:02:38.937Z,1.00
2023-03-28T17:05:06.207Z,1.30
2023-03-28T17:07:42.192Z,1.73
2023-03-28T17:10:09.506Z,1.70
2023-03-28T17:12:36.190Z,1.88
2023-03-28T17:15:06.780Z,1.97
2023-03-28T17:17:36.590Z,1.63
2023-03-28T17:20:03.269Z,1.67
2023-03-28T17:22:30.001Z,1.80
2023-03-28T17:24:57.601Z,1.80
2023-03-28T17:27:24.294Z,1.93
2023-03-28T17:29:51.675Z,1.88
2023-03-28T17:32:18.464Z,2.20
2023-03-28T17:34:45.155Z,2.20
2023-03-28T17:37:11.865Z,2.03
2023-03-28T17:39:39.700Z,2.57
2023-03-28T17:42:06.292Z,2.28
2023-03-28T17:44:32.778Z,2.20
2023-03-28T17:47:00.734Z,2.22
2023-03-28T17:49:27.439Z,2.20
2023-03-28T17:51:53.960Z,2.10
2023-03-28T17:54:20.336Z,2.28
2023-03-28T17:56:46.863Z,1.90
2023-03-28T17:59:13.831Z,1.58
2023-03-28T18:01:41.073Z,1.52
2023-03-28T18:04:07.996Z,2.63
2023-03-28T18:06:34.878Z,2.75
2023-03-28T18:09:01.391Z,2.63
2023-03-28T18:11:33.456Z,2.45
2023-03-28T18:14:00.312Z,2.95
2023-03-28T18:16:27.948Z,2.77
2023-03-28T18:18:54.920Z,3.05
2023-03-28T18:21:24.144Z,3.67
2023-03-28T18:23:50.811Z,3.08
2023-03-28T18:26:17.401Z,3.55
2023-03-28T18:28:44.049Z,2.80
2023-03-28T18:31:13.129Z,3.17
2023-03-28T18:33:41.191Z,2.33
2023-03-28T18:36:08.206Z,1.90
2023-03-28T18:38:39.740Z,2.17
2023-03-28T18:41:08.420Z,1.90
2023-03-28T18:43:36.291Z,1.90
2023-03-28T18:46:03.711Z,2.38
2023-03-28T18:48:30.764Z,2.05
2023-03-28T18:50:58.359Z,2.35
2023-03-28T18:53:25.840Z,2.20
2023-03-28T18:55:53.145Z,1.80
2023-03-28T18:58:19.865Z,1.80
2023-03-28T19:00:47.432Z,1.33
2023-03-28T19:03:30.908Z,1.63
2023-03-28T19:05:59.818Z,1.57
2023-03-28T19:08:28.181Z,1.50
2023-03-28T19:11:00.086Z,1.55
2023-03-28T19:13:29.484Z,1.42
2023-03-28T19:16:07.873Z,1.40
2023-03-28T19:18:38.028Z,1.47
2023-03-28T19:21:04.925Z,1.52
2023-03-28T19:23:31.439Z,1.27
2023-03-28T19:25:58.144Z,1.63
2023-03-28T19:28:24.905Z,1.80
2023-03-28T19:30:59.558Z,1.27
2023-03-28T19:33:27.227Z,1.40
2023-03-28T19:35:54.187Z,1.63
2023-03-28T19:38:22.039Z,1.63
2023-03-28T19:40:48.521Z,1.23
2023-03-28T19:43:24.614Z,1.33
2023-03-28T19:45:51.279Z,1.40
2023-03-28T19:48:17.885Z,1.60
2023-03-28T19:50:44.774Z,1.48
2023-03-28T19:53:11.396Z,1.70
2023-03-28T19:55:38.080Z,2.17
2023-03-28T19:58:07.259Z,1.40
2023-03-28T20:00:33.931Z,1.48
2023-03-28T20:03:00.902Z,1.45
2023-03-28T20:05:27.461Z,1.80
2023-03-28T20:07:54.330Z,1.53
2023-03-28T20:10:21.146Z,2.00
2023-03-28T20:12:47.777Z,2.10
2023-03-28T20:15:14.276Z,2.00
2023-03-28T20:17:40.762Z,2.30
2023-03-28T20:20:08.277Z,2.33
2023-03-28T20:22:35.226Z,2.63
2023-03-28T20:25:04.438Z,2.30
2023-03-28T20:27:32.177Z,2.15
2023-03-28T20:29:58.617Z,2.10
2023-03-28T20:32:25.172Z,1.40
2023-03-28T20:34:51.648Z,1.80
2023-03-28T20:37:18.124Z,1.40
2023-03-28T20:39:47.306Z,1.77
2023-03-28T20:42:13.785Z,1.40
2023-03-28T20:44:40.280Z,1.90
2023-03-28T20:47:08.576Z,1.45
2023-03-28T20:49:36.214Z,1.63
2023-03-28T20:52:02.804Z,1.27
2023-03-28T20:54:29.437Z,1.45
2023-03-28T20:56:56.001Z,1.77
2023-03-28T20:59:23.371Z,1.63
2023-03-28T21:01:49.751Z,1.85
2023-03-28T21:04:16.350Z,1.45
2023-03-28T21:06:45.075Z,1.45
2023-03-28T21:09:15.730Z,1.40
2023-03-28T21:11:43.908Z,1.40
2023-03-28T21:14:14.174Z,1.40
2023-03-28T21:16:41.591Z,1.40
2023-03-28T21:19:08.993Z,1.00
2023-03-28T21:21:35.808Z,1.30
2023-03-28T21:24:03.752Z,1.27
2023-03-28T21:26:31.699Z,1.35
2023-03-28T21:28:58.748Z,1.63
2023-03-28T21:31:27.990Z,1.33
2023-03-28T21:33:57.423Z,1.17
2023-03-28T21:36:25.714Z,1.08
2023-03-28T21:38:52.407Z,1.30
2023-03-28T21:41:18.958Z,0.90
2023-03-28T21:43:45.679Z,0.93
2023-03-28T21:46:13.534Z,0.77
2023-03-28T21:48:43.288Z,0.70
2023-03-28T21:51:09.734Z,1.02
2023-03-28T21:53:37.936Z,0.70
2023-03-28T21:56:14.864Z,1.10
2023-03-28T21:58:53.776Z,1.33
2023-03-28T22:01:20.464Z,0.80
2023-03-28T22:03:48.021Z,1.00
2023-03-28T22:06:16.737Z,1.10
2023-03-28T22:08:45.162Z,0.90
2023-03-28T22:11:17.020Z,0.90
2023-03-28T22:13:47.653Z,1.30
2023-03-28T22:16:15.370Z,0.85
2023-03-28T22:18:49.756Z,1.00
2023-03-28T22:21:17.247Z,1.00
2023-03-28T22:23:47.535Z,1.17
2023-03-28T22:26:14.678Z,0.90
2023-03-28T22:28:41.516Z,0.80
2023-03-28T22:31:08.051Z,0.88
2023-03-28T22:33:34.501Z,1.05
2023-03-28T22:36:01.201Z,1.00
2023-03-28T22:38:27.824Z,1.02
2023-03-28T22:40:54.292Z,0.93
2023-03-28T22:43:20.946Z,0.75
2023-03-28T22:45:47.573Z,0.88
2023-03-28T22:48:17.262Z,0.80
2023-03-28T22:50:44.772Z,0.82
2023-03-28T22:53:12.508Z,1.10
2023-03-28T22:55:46.516Z,1.10
2023-03-28T22:58:13.067Z,0.73
2023-03-28T23:00:39.956Z,0.77
2023-03-28T23:03:08.275Z,1.05
2023-03-28T23:05:35.369Z,0.80
2023-03-28T23:08:08.194Z,0.70
2023-03-28T23:10:34.683Z,0.60
2023-03-28T23:13:02.193Z,0.90
2023-03-28T23:15:28.651Z,0.63
2023-03-28T23:17:55.870Z,0.77
2023-03-28T23:20:22.710Z,0.80
2023-03-28T23:22:49.220Z,1.27
2023-03-28T23:25:18.711Z,0.80
2023-03-28T23:30:38.883Z,0.77
2023-03-28T23:33:05.430Z,0.90
2023-03-28T23:35:32.011Z,0.73
2023-03-28T23:37:58.649Z,0.77
2023-03-28T23:40:25.073Z,0.80
2023-03-28T23:42:51.745Z,0.88
2023-03-28T23:45:18.338Z,1.02
2023-03-28T23:47:45.057Z,1.00
2023-03-28T23:50:12.078Z,1.00
2023-03-28T23:52:38.680Z,0.88
2023-03-28T23:55:06.575Z,0.73
2023-03-28T23:57:33.143Z,0.90
2023-03-28T23:59:59.689Z,0.70
